sensor_id;sensor_type;location;lat;lon;timestamp;temperature;humidity
33673;DHT22;20011;51.510;9.942;2023-06-10T00:01:16;17.20;99.90
33673;DHT22;20011;51.510;9.942;2023-06-10T00:03:43;17.20;99.90
33673;DHT22;20011;51.510;9.942;2023-06-10T00:06:10;17.20;99.90
33673;DHT22;20011;51.510;9.942;2023-06-10T00:08:37;17.20;99.90
33673;DHT22;20011;51.510;9.942;2023-06-10T00:11:06;17.20;99.90
33673;DHT22;20011;51.510;9.942;2023-06-10T00:13:33;17.20;99.90
33673;DHT22;20011;51.510;9.942;2023-06-10T00:16:00;17.20;99.90
33673;DHT22;20011;51.510;9.942;2023-06-10T00:18:27;17.10;99.90
33673;DHT22;20011;51.510;9.942;2023-06-10T00:20:54;17.10;99.90
33673;DHT22;20011;51.510;9.942;2023-06-10T00:23:21;17.10;99.90
33673;DHT22;20011;51.510;9.942;2023-06-10T00:25:49;17.10;99.90
33673;DHT22;20011;51.510;9.942;2023-06-10T00:28:16;17.10;99.90
33673;DHT22;20011;51.510;9.942;2023-06-10T00:30:43;17.00;99.90
33673;DHT22;20011;51.510;9.942;2023-06-10T00:33:10;17.00;99.90
33673;DHT22;20011;51.510;9.942;2023-06-10T00:35:37;17.00;99.90
33673;DHT22;20011;51.510;9.942;2023-06-10T00:38:03;17.00;99.90
33673;DHT22;20011;51.510;9.942;2023-06-10T00:40:30;17.00;99.90
33673;DHT22;20011;51.510;9.942;2023-06-10T00:42:57;16.90;99.90
33673;DHT22;20011;51.510;9.942;2023-06-10T00:45:24;17.00;99.90
33673;DHT22;20011;51.510;9.942;2023-06-10T00:47:51;16.90;99.90
33673;DHT22;20011;51.510;9.942;2023-06-10T00:50:18;16.90;99.90
33673;DHT22;20011;51.510;9.942;2023-06-10T00:52:45;16.90;99.90
33673;DHT22;20011;51.510;9.942;2023-06-10T00:55:17;16.90;99.90
33673;DHT22;20011;51.510;9.942;2023-06-10T00:57:47;16.90;99.90
33673;DHT22;20011;51.510;9.942;2023-06-10T01:00:18;16.90;99.90
33673;DHT22;20011;51.510;9.942;2023-06-10T01:02:45;16.90;99.90
33673;DHT22;20011;51.510;9.942;2023-06-10T01:05:12;16.80;99.90
33673;DHT22;20011;51.510;9.942;2023-06-10T01:07:46;16.80;99.90
33673;DHT22;20011;51.510;9.942;2023-06-10T01:13:06;16.80;99.90
33673;DHT22;20011;51.510;9.942;2023-06-10T01:15:35;16.80;99.90
33673;DHT22;20011;51.510;9.942;2023-06-10T01:18:07;16.80;99.90
33673;DHT22;20011;51.510;9.942;2023-06-10T01:20:43;16.80;99.90
33673;DHT22;20011;51.510;9.942;2023-06-10T01:23:11;16.70;99.90
33673;DHT22;20011;51.510;9.942;2023-06-10T01:25:44;16.70;99.90
33673;DHT22;20011;51.510;9.942;2023-06-10T01:33:36;16.60;99.90
33673;DHT22;20011;51.510;9.942;2023-06-10T01:36:04;16.60;99.90
33673;DHT22;20011;51.510;9.942;2023-06-10T01:38:36;16.60;99.90
33673;DHT22;20011;51.510;9.942;2023-06-10T01:41:03;16.60;99.90
33673;DHT22;20011;51.510;9.942;2023-06-10T01:43:34;16.50;99.90
33673;DHT22;20011;51.510;9.942;2023-06-10T01:46:01;16.50;99.90
33673;DHT22;20011;51.510;9.942;2023-06-10T01:48:29;16.50;99.90
33673;DHT22;20011;51.510;9.942;2023-06-10T01:50:56;16.50;99.90
33673;DHT22;20011;51.510;9.942;2023-06-10T01:53:23;16.50;99.90
33673;DHT22;20011;51.510;9.942;2023-06-10T01:55:50;16.40;99.90
33673;DHT22;20011;51.510;9.942;2023-06-10T01:58:17;16.40;99.90
33673;DHT22;20011;51.510;9.942;2023-06-10T02:00:44;16.40;99.90
33673;DHT22;20011;51.510;9.942;2023-06-10T02:03:11;16.50;99.90
33673;DHT22;20011;51.510;9.942;2023-06-10T02:05:39;16.40;99.90
33673;DHT22;20011;51.510;9.942;2023-06-10T02:08:07;16.40;99.90
33673;DHT22;20011;51.510;9.942;2023-06-10T02:10:34;16.40;99.90
33673;DHT22;20011;51.510;9.942;2023-06-10T02:13:01;16.30;99.90
33673;DHT22;20011;51.510;9.942;2023-06-10T02:15:28;16.30;99.90
33673;DHT22;20011;51.510;9.942;2023-06-10T02:17:55;16.20;99.90
33673;DHT22;20011;51.510;9.942;2023-06-10T02:20:22;16.20;99.90
33673;DHT22;20011;51.510;9.942;2023-06-10T02:22:49;16.20;99.90
33673;DHT22;20011;51.510;9.942;2023-06-10T02:25:16;16.10;99.90
33673;DHT22;20011;51.510;9.942;2023-06-10T02:27:43;16.10;99.90
33673;DHT22;20011;51.510;9.942;2023-06-10T02:30:11;16.10;99.90
33673;DHT22;20011;51.510;9.942;2023-06-10T02:32:38;16.00;99.90
33673;DHT22;20011;51.510;9.942;2023-06-10T02:35:05;16.00;99.90
33673;DHT22;20011;51.510;9.942;2023-06-10T02:37:33;16.00;99.90
33673;DHT22;20011;51.510;9.942;2023-06-10T02:40:00;16.00;99.90
33673;DHT22;20011;51.510;9.942;2023-06-10T02:42:27;16.00;99.90
33673;DHT22;20011;51.510;9.942;2023-06-10T02:44:54;16.00;99.90
33673;DHT22;20011;51.510;9.942;2023-06-10T02:47:32;16.00;99.90
33673;DHT22;20011;51.510;9.942;2023-06-10T02:50:00;16.00;99.90
33673;DHT22;20011;51.510;9.942;2023-06-10T02:52:28;15.90;99.90
33673;DHT22;20011;51.510;9.942;2023-06-10T02:54:55;15.90;99.90
33673;DHT22;20011;51.510;9.942;2023-06-10T02:57:22;15.90;99.90
33673;DHT22;20011;51.510;9.942;2023-06-10T02:59:49;15.90;99.90
33673;DHT22;20011;51.510;9.942;2023-06-10T03:02:18;15.90;99.90
33673;DHT22;20011;51.510;9.942;2023-06-10T03:04:49;15.90;99.90
33673;DHT22;20011;51.510;9.942;2023-06-10T03:07:18;15.80;99.90
33673;DHT22;20011;51.510;9.942;2023-06-10T03:09:49;15.80;99.90
33673;DHT22;20011;51.510;9.942;2023-06-10T03:12:17;15.80;99.90
33673;DHT22;20011;51.510;9.942;2023-06-10T03:14:47;15.80;99.90
33673;DHT22;20011;51.510;9.942;2023-06-10T03:17:15;15.80;99.90
33673;DHT22;20011;51.510;9.942;2023-06-10T03:19:43;15.80;99.90
33673;DHT22;20011;51.510;9.942;2023-06-10T03:22:13;15.80;99.90
33673;DHT22;20011;51.510;9.942;2023-06-10T03:24:51;15.80;99.90
33673;DHT22;20011;51.510;9.942;2023-06-10T03:27:18;15.70;99.90
33673;DHT22;20011;51.510;9.942;2023-06-10T03:29:50;15.70;99.90
33673;DHT22;20011;51.510;9.942;2023-06-10T03:32:18;15.70;99.90
33673;DHT22;20011;51.510;9.942;2023-06-10T03:34:45;15.70;99.90
33673;DHT22;20011;51.510;9.942;2023-06-10T03:37:13;15.60;99.90
33673;DHT22;20011;51.510;9.942;2023-06-10T03:39:41;15.60;99.90
33673;DHT22;20011;51.510;9.942;2023-06-10T03:42:08;15.70;99.90
33673;DHT22;20011;51.510;9.942;2023-06-10T03:44:36;15.60;99.90
33673;DHT22;20011;51.510;9.942;2023-06-10T03:47:03;15.60;99.90
33673;DHT22;20011;51.510;9.942;2023-06-10T03:49:30;15.60;99.90
33673;DHT22;20011;51.510;9.942;2023-06-10T03:52:00;15.60;99.90
33673;DHT22;20011;51.510;9.942;2023-06-10T03:54:28;15.60;99.90
33673;DHT22;20011;51.510;9.942;2023-06-10T03:56:55;15.60;99.90
33673;DHT22;20011;51.510;9.942;2023-06-10T03:59:22;15.50;99.90
33673;DHT22;20011;51.510;9.942;2023-06-10T04:01:49;15.60;99.90
33673;DHT22;20011;51.510;9.942;2023-06-10T04:04:16;15.50;99.90
33673;DHT22;20011;51.510;9.942;2023-06-10T04:06:44;15.60;99.90
33673;DHT22;20011;51.510;9.942;2023-06-10T04:09:11;15.60;99.90
33673;DHT22;20011;51.510;9.942;2023-06-10T04:11:39;15.60;99.90
33673;DHT22;20011;51.510;9.942;2023-06-10T04:14:07;15.60;99.90
33673;DHT22;20011;51.510;9.942;2023-06-10T04:16:35;15.60;99.90
33673;DHT22;20011;51.510;9.942;2023-06-10T04:19:03;15.70;99.90
33673;DHT22;20011;51.510;9.942;2023-06-10T04:21:30;15.80;99.90
33673;DHT22;20011;51.510;9.942;2023-06-10T04:23:57;15.80;99.90
33673;DHT22;20011;51.510;9.942;2023-06-10T04:26:24;15.90;99.90
33673;DHT22;20011;51.510;9.942;2023-06-10T04:28:53;16.00;99.90
33673;DHT22;20011;51.510;9.942;2023-06-10T04:31:20;16.00;99.90
33673;DHT22;20011;51.510;9.942;2023-06-10T04:33:47;16.10;99.90
33673;DHT22;20011;51.510;9.942;2023-06-10T04:36:15;16.10;99.90
33673;DHT22;20011;51.510;9.942;2023-06-10T04:38:42;16.20;99.90
33673;DHT22;20011;51.510;9.942;2023-06-10T04:41:09;16.20;99.90
33673;DHT22;20011;51.510;9.942;2023-06-10T04:43:36;16.30;99.90
33673;DHT22;20011;51.510;9.942;2023-06-10T04:46:04;16.40;99.90
33673;DHT22;20011;51.510;9.942;2023-06-10T04:48:35;16.50;99.90
33673;DHT22;20011;51.510;9.942;2023-06-10T04:51:03;16.50;99.90
33673;DHT22;20011;51.510;9.942;2023-06-10T04:53:32;16.50;99.90
33673;DHT22;20011;51.510;9.942;2023-06-10T04:55:59;16.50;99.90
33673;DHT22;20011;51.510;9.942;2023-06-10T04:58:26;16.50;99.90
33673;DHT22;20011;51.510;9.942;2023-06-10T05:00:52;16.50;99.90
33673;DHT22;20011;51.510;9.942;2023-06-10T05:03:19;16.50;99.90
33673;DHT22;20011;51.510;9.942;2023-06-10T05:05:47;16.50;99.90
33673;DHT22;20011;51.510;9.942;2023-06-10T05:08:14;16.50;99.90
33673;DHT22;20011;51.510;9.942;2023-06-10T05:10:40;16.50;99.90
33673;DHT22;20011;51.510;9.942;2023-06-10T05:13:07;16.50;99.90
33673;DHT22;20011;51.510;9.942;2023-06-10T05:15:34;16.60;99.90
33673;DHT22;20011;51.510;9.942;2023-06-10T05:18:01;16.60;99.90
33673;DHT22;20011;51.510;9.942;2023-06-10T05:20:31;16.60;99.90
33673;DHT22;20011;51.510;9.942;2023-06-10T05:22:58;16.60;99.90
33673;DHT22;20011;51.510;9.942;2023-06-10T05:25:26;16.60;99.90
33673;DHT22;20011;51.510;9.942;2023-06-10T05:27:53;16.60;99.90
33673;DHT22;20011;51.510;9.942;2023-06-10T05:30:20;16.60;99.90
33673;DHT22;20011;51.510;9.942;2023-06-10T05:32:48;16.60;99.90
33673;DHT22;20011;51.510;9.942;2023-06-10T05:35:15;16.70;99.90
33673;DHT22;20011;51.510;9.942;2023-06-10T05:37:42;16.70;99.90
33673;DHT22;20011;51.510;9.942;2023-06-10T05:40:10;16.70;99.90
33673;DHT22;20011;51.510;9.942;2023-06-10T05:42:38;16.80;99.90
33673;DHT22;20011;51.510;9.942;2023-06-10T05:45:06;16.80;99.90
33673;DHT22;20011;51.510;9.942;2023-06-10T05:47:34;16.80;99.90
33673;DHT22;20011;51.510;9.942;2023-06-10T05:50:01;16.90;99.90
33673;DHT22;20011;51.510;9.942;2023-06-10T05:52:29;16.90;99.90
33673;DHT22;20011;51.510;9.942;2023-06-10T05:54:55;16.90;99.90
33673;DHT22;20011;51.510;9.942;2023-06-10T05:57:22;16.90;99.90
33673;DHT22;20011;51.510;9.942;2023-06-10T05:59:49;16.90;99.90
33673;DHT22;20011;51.510;9.942;2023-06-10T06:02:16;17.00;99.90
33673;DHT22;20011;51.510;9.942;2023-06-10T06:04:43;17.00;99.90
33673;DHT22;20011;51.510;9.942;2023-06-10T06:07:10;17.00;99.90
33673;DHT22;20011;51.510;9.942;2023-06-10T06:09:37;17.10;99.90
33673;DHT22;20011;51.510;9.942;2023-06-10T06:12:05;17.10;99.90
33673;DHT22;20011;51.510;9.942;2023-06-10T06:14:37;17.10;99.90
33673;DHT22;20011;51.510;9.942;2023-06-10T06:17:04;17.10;99.90
33673;DHT22;20011;51.510;9.942;2023-06-10T06:19:31;17.10;99.90
33673;DHT22;20011;51.510;9.942;2023-06-10T06:21:58;17.10;99.90
33673;DHT22;20011;51.510;9.942;2023-06-10T06:24:25;17.20;99.90
33673;DHT22;20011;51.510;9.942;2023-06-10T06:26:52;17.20;99.90
33673;DHT22;20011;51.510;9.942;2023-06-10T06:29:19;17.20;99.90
33673;DHT22;20011;51.510;9.942;2023-06-10T06:31:46;17.30;99.90
33673;DHT22;20011;51.510;9.942;2023-06-10T06:34:13;17.30;99.90
33673;DHT22;20011;51.510;9.942;2023-06-10T06:36:42;17.30;99.90
33673;DHT22;20011;51.510;9.942;2023-06-10T06:39:09;17.30;99.90
33673;DHT22;20011;51.510;9.942;2023-06-10T06:41:36;17.30;99.90
33673;DHT22;20011;51.510;9.942;2023-06-10T06:44:03;17.40;99.90
33673;DHT22;20011;51.510;9.942;2023-06-10T06:46:35;17.40;99.90
33673;DHT22;20011;51.510;9.942;2023-06-10T06:49:02;17.40;99.90
33673;DHT22;20011;51.510;9.942;2023-06-10T06:51:29;17.40;99.90
33673;DHT22;20011;51.510;9.942;2023-06-10T06:53:56;17.50;99.90
33673;DHT22;20011;51.510;9.942;2023-06-10T06:56:25;17.50;99.90
33673;DHT22;20011;51.510;9.942;2023-06-10T06:58:53;17.50;99.90
33673;DHT22;20011;51.510;9.942;2023-06-10T07:01:24;17.60;99.90
33673;DHT22;20011;51.510;9.942;2023-06-10T07:03:51;17.60;99.90
33673;DHT22;20011;51.510;9.942;2023-06-10T07:06:18;17.60;99.90
33673;DHT22;20011;51.510;9.942;2023-06-10T07:08:45;17.60;99.90
33673;DHT22;20011;51.510;9.942;2023-06-10T07:11:11;17.60;99.90
33673;DHT22;20011;51.510;9.942;2023-06-10T07:13:38;17.70;99.90
33673;DHT22;20011;51.510;9.942;2023-06-10T07:16:11;17.70;99.90
33673;DHT22;20011;51.510;9.942;2023-06-10T07:18:38;17.70;99.90
33673;DHT22;20011;51.510;9.942;2023-06-10T07:21:30;17.70;99.90
33673;DHT22;20011;51.510;9.942;2023-06-10T07:23:57;17.70;99.90
33673;DHT22;20011;51.510;9.942;2023-06-10T07:26:24;17.70;99.90
33673;DHT22;20011;51.510;9.942;2023-06-10T07:28:52;17.70;99.90
33673;DHT22;20011;51.510;9.942;2023-06-10T07:31:19;17.70;99.90
33673;DHT22;20011;51.510;9.942;2023-06-10T07:33:47;17.80;99.90
33673;DHT22;20011;51.510;9.942;2023-06-10T07:36:14;17.80;99.90
33673;DHT22;20011;51.510;9.942;2023-06-10T07:38:41;17.80;99.90
33673;DHT22;20011;51.510;9.942;2023-06-10T07:41:09;17.80;99.90
33673;DHT22;20011;51.510;9.942;2023-06-10T07:43:37;17.90;99.90
33673;DHT22;20011;51.510;9.942;2023-06-10T07:46:04;17.90;99.90
33673;DHT22;20011;51.510;9.942;2023-06-10T07:48:32;17.90;99.90
33673;DHT22;20011;51.510;9.942;2023-06-10T07:50:59;17.90;99.90
33673;DHT22;20011;51.510;9.942;2023-06-10T07:53:26;17.80;99.90
33673;DHT22;20011;51.510;9.942;2023-06-10T07:55:53;17.90;99.90
33673;DHT22;20011;51.510;9.942;2023-06-10T07:58:20;17.90;99.90
33673;DHT22;20011;51.510;9.942;2023-06-10T08:00:48;17.90;99.90
33673;DHT22;20011;51.510;9.942;2023-06-10T08:03:15;18.00;99.90
33673;DHT22;20011;51.510;9.942;2023-06-10T08:05:42;18.00;99.90
33673;DHT22;20011;51.510;9.942;2023-06-10T08:08:10;18.00;99.90
33673;DHT22;20011;51.510;9.942;2023-06-10T08:10:37;18.00;99.90
33673;DHT22;20011;51.510;9.942;2023-06-10T08:13:04;18.00;99.90
33673;DHT22;20011;51.510;9.942;2023-06-10T08:15:31;18.10;99.90
33673;DHT22;20011;51.510;9.942;2023-06-10T08:17:58;18.10;99.90
33673;DHT22;20011;51.510;9.942;2023-06-10T08:20:25;18.10;99.90
33673;DHT22;20011;51.510;9.942;2023-06-10T08:22:52;18.10;99.90
33673;DHT22;20011;51.510;9.942;2023-06-10T08:25:19;18.10;99.90
33673;DHT22;20011;51.510;9.942;2023-06-10T08:27:48;18.10;99.90
33673;DHT22;20011;51.510;9.942;2023-06-10T08:30:17;18.20;99.90
33673;DHT22;20011;51.510;9.942;2023-06-10T08:32:44;18.20;99.90
33673;DHT22;20011;51.510;9.942;2023-06-10T08:35:11;18.20;99.90
33673;DHT22;20011;51.510;9.942;2023-06-10T08:37:38;18.20;99.90
33673;DHT22;20011;51.510;9.942;2023-06-10T08:40:06;18.20;99.90
33673;DHT22;20011;51.510;9.942;2023-06-10T08:42:38;18.20;99.90
33673;DHT22;20011;51.510;9.942;2023-06-10T08:45:07;18.20;99.90
33673;DHT22;20011;51.510;9.942;2023-06-10T08:47:39;18.30;99.90
33673;DHT22;20011;51.510;9.942;2023-06-10T08:50:10;18.30;99.90
33673;DHT22;20011;51.510;9.942;2023-06-10T08:52:43;18.30;99.90
33673;DHT22;20011;51.510;9.942;2023-06-10T08:55:18;18.30;99.90
33673;DHT22;20011;51.510;9.942;2023-06-10T08:57:46;18.30;99.90
33673;DHT22;20011;51.510;9.942;2023-06-10T09:00:16;18.30;99.90
33673;DHT22;20011;51.510;9.942;2023-06-10T09:02:43;18.30;99.90
33673;DHT22;20011;51.510;9.942;2023-06-10T09:05:11;18.40;99.90
33673;DHT22;20011;51.510;9.942;2023-06-10T09:07:38;18.40;99.90
33673;DHT22;20011;51.510;9.942;2023-06-10T09:10:06;18.40;99.90
33673;DHT22;20011;51.510;9.942;2023-06-10T09:12:36;18.40;99.90
33673;DHT22;20011;51.510;9.942;2023-06-10T09:15:06;18.40;99.90
33673;DHT22;20011;51.510;9.942;2023-06-10T09:17:33;18.40;99.90
33673;DHT22;20011;51.510;9.942;2023-06-10T09:20:00;18.50;99.90
33673;DHT22;20011;51.510;9.942;2023-06-10T09:22:29;18.50;99.90
33673;DHT22;20011;51.510;9.942;2023-06-10T09:25:06;18.50;99.90
33673;DHT22;20011;51.510;9.942;2023-06-10T09:27:48;18.50;99.90
33673;DHT22;20011;51.510;9.942;2023-06-10T09:32:56;18.60;99.90
33673;DHT22;20011;51.510;9.942;2023-06-10T09:35:29;18.70;99.90
33673;DHT22;20011;51.510;9.942;2023-06-10T09:37:58;18.60;99.90
33673;DHT22;20011;51.510;9.942;2023-06-10T09:40:26;18.60;99.90
33673;DHT22;20011;51.510;9.942;2023-06-10T09:42:58;18.60;99.90
33673;DHT22;20011;51.510;9.942;2023-06-10T09:45:32;18.60;99.90
33673;DHT22;20011;51.510;9.942;2023-06-10T09:48:00;18.60;99.90
33673;DHT22;20011;51.510;9.942;2023-06-10T09:50:27;18.70;99.90
33673;DHT22;20011;51.510;9.942;2023-06-10T09:52:54;18.70;99.90
33673;DHT22;20011;51.510;9.942;2023-06-10T09:55:21;18.80;99.90
33673;DHT22;20011;51.510;9.942;2023-06-10T09:57:53;18.80;99.90
33673;DHT22;20011;51.510;9.942;2023-06-10T10:00:22;18.80;99.90
33673;DHT22;20011;51.510;9.942;2023-06-10T10:02:53;18.80;99.90
33673;DHT22;20011;51.510;9.942;2023-06-10T10:05:21;18.90;99.90
33673;DHT22;20011;51.510;9.942;2023-06-10T10:07:49;18.90;99.90
33673;DHT22;20011;51.510;9.942;2023-06-10T10:10:18;18.90;99.90
33673;DHT22;20011;51.510;9.942;2023-06-10T10:12:47;18.90;99.90
33673;DHT22;20011;51.510;9.942;2023-06-10T10:15:16;18.90;99.90
33673;DHT22;20011;51.510;9.942;2023-06-10T10:17:58;19.00;99.90
33673;DHT22;20011;51.510;9.942;2023-06-10T10:20:29;19.10;99.90
33673;DHT22;20011;51.510;9.942;2023-06-10T10:22:58;19.20;99.90
33673;DHT22;20011;51.510;9.942;2023-06-10T10:25:32;19.30;99.90
33673;DHT22;20011;51.510;9.942;2023-06-10T10:28:08;19.40;99.90
33673;DHT22;20011;51.510;9.942;2023-06-10T10:30:40;19.40;99.90
33673;DHT22;20011;51.510;9.942;2023-06-10T10:33:19;19.40;99.90
33673;DHT22;20011;51.510;9.942;2023-06-10T10:35:47;19.50;99.90
33673;DHT22;20011;51.510;9.942;2023-06-10T10:38:14;19.50;99.90
33673;DHT22;20011;51.510;9.942;2023-06-10T10:40:42;19.50;99.90
33673;DHT22;20011;51.510;9.942;2023-06-10T10:43:10;19.50;99.90
33673;DHT22;20011;51.510;9.942;2023-06-10T10:45:37;19.50;99.90
33673;DHT22;20011;51.510;9.942;2023-06-10T10:48:07;19.40;99.90
33673;DHT22;20011;51.510;9.942;2023-06-10T10:50:37;19.50;99.90
33673;DHT22;20011;51.510;9.942;2023-06-10T10:53:05;19.70;99.90
33673;DHT22;20011;51.510;9.942;2023-06-10T10:55:33;19.90;99.90
33673;DHT22;20011;51.510;9.942;2023-06-10T10:58:04;20.00;99.90
33673;DHT22;20011;51.510;9.942;2023-06-10T11:00:36;20.20;99.90
33673;DHT22;20011;51.510;9.942;2023-06-10T11:03:06;20.20;99.90
33673;DHT22;20011;51.510;9.942;2023-06-10T11:05:45;20.10;99.90
33673;DHT22;20011;51.510;9.942;2023-06-10T11:08:22;20.00;99.90
33673;DHT22;20011;51.510;9.942;2023-06-10T11:11:18;19.90;99.90
33673;DHT22;20011;51.510;9.942;2023-06-10T11:16:28;19.60;99.90
33673;DHT22;20011;51.510;9.942;2023-06-10T11:18:56;19.50;99.90
33673;DHT22;20011;51.510;9.942;2023-06-10T11:21:24;19.50;99.90
33673;DHT22;20011;51.510;9.942;2023-06-10T11:23:58;19.40;99.90
33673;DHT22;20011;51.510;9.942;2023-06-10T11:31:27;19.30;99.90
33673;DHT22;20011;51.510;9.942;2023-06-10T11:34:13;19.30;99.90
33673;DHT22;20011;51.510;9.942;2023-06-10T11:36:42;19.30;99.90
33673;DHT22;20011;51.510;9.942;2023-06-10T11:39:12;19.30;99.90
33673;DHT22;20011;51.510;9.942;2023-06-10T11:41:40;19.30;99.90
33673;DHT22;20011;51.510;9.942;2023-06-10T11:46:35;19.30;99.90
33673;DHT22;20011;51.510;9.942;2023-06-10T11:49:04;19.20;99.90
33673;DHT22;20011;51.510;9.942;2023-06-10T11:51:39;19.30;99.90
33673;DHT22;20011;51.510;9.942;2023-06-10T11:54:10;19.40;99.90
33673;DHT22;20011;51.510;9.942;2023-06-10T11:56:37;19.60;99.90
33673;DHT22;20011;51.510;9.942;2023-06-10T11:59:05;19.70;99.90
33673;DHT22;20011;51.510;9.942;2023-06-10T12:01:38;20.10;99.90
33673;DHT22;20011;51.510;9.942;2023-06-10T12:04:11;20.50;99.90
33673;DHT22;20011;51.510;9.942;2023-06-10T12:06:45;20.50;99.90
33673;DHT22;20011;51.510;9.942;2023-06-10T12:09:16;20.50;99.90
33673;DHT22;20011;51.510;9.942;2023-06-10T12:11:55;20.70;99.90
33673;DHT22;20011;51.510;9.942;2023-06-10T12:14:55;20.60;99.90
33673;DHT22;20011;51.510;9.942;2023-06-10T12:17:36;20.50;99.90
33673;DHT22;20011;51.510;9.942;2023-06-10T12:20:06;20.20;99.90
33673;DHT22;20011;51.510;9.942;2023-06-10T12:22:42;20.10;99.90
33673;DHT22;20011;51.510;9.942;2023-06-10T12:25:10;20.10;99.90
33673;DHT22;20011;51.510;9.942;2023-06-10T12:27:40;20.10;99.90
33673;DHT22;20011;51.510;9.942;2023-06-10T12:30:07;20.20;99.90
33673;DHT22;20011;51.510;9.942;2023-06-10T12:32:43;20.10;99.90
33673;DHT22;20011;51.510;9.942;2023-06-10T12:35:12;20.10;99.90
33673;DHT22;20011;51.510;9.942;2023-06-10T12:37:41;20.00;99.90
33673;DHT22;20011;51.510;9.942;2023-06-10T12:40:10;20.00;99.90
33673;DHT22;20011;51.510;9.942;2023-06-10T12:42:38;19.90;99.90
33673;DHT22;20011;51.510;9.942;2023-06-10T12:45:06;19.80;99.90
33673;DHT22;20011;51.510;9.942;2023-06-10T12:47:37;19.80;99.90
33673;DHT22;20011;51.510;9.942;2023-06-10T12:50:08;19.80;99.90
33673;DHT22;20011;51.510;9.942;2023-06-10T12:52:36;19.80;99.90
33673;DHT22;20011;51.510;9.942;2023-06-10T12:55:04;19.80;99.90
33673;DHT22;20011;51.510;9.942;2023-06-10T12:57:31;19.90;99.90
33673;DHT22;20011;51.510;9.942;2023-06-10T12:59:58;20.10;99.90
33673;DHT22;20011;51.510;9.942;2023-06-10T13:02:31;20.20;99.30
33673;DHT22;20011;51.510;9.942;2023-06-10T13:04:58;20.50;96.80
33673;DHT22;20011;51.510;9.942;2023-06-10T13:07:25;20.70;96.80
33673;DHT22;20011;51.510;9.942;2023-06-10T13:09:53;20.60;97.30
33673;DHT22;20011;51.510;9.942;2023-06-10T13:12:21;20.80;96.50
33673;DHT22;20011;51.510;9.942;2023-06-10T13:15:08;20.90;95.80
33673;DHT22;20011;51.510;9.942;2023-06-10T13:17:37;21.20;94.70
33673;DHT22;20011;51.510;9.942;2023-06-10T13:20:05;21.20;95.00
33673;DHT22;20011;51.510;9.942;2023-06-10T13:22:33;21.30;94.20
33673;DHT22;20011;51.510;9.942;2023-06-10T13:25:03;21.20;94.20
33673;DHT22;20011;51.510;9.942;2023-06-10T13:27:30;21.10;94.60
33673;DHT22;20011;51.510;9.942;2023-06-10T13:29:57;21.10;94.50
33673;DHT22;20011;51.510;9.942;2023-06-10T13:32:25;21.00;94.90
33673;DHT22;20011;51.510;9.942;2023-06-10T13:34:53;20.80;95.50
33673;DHT22;20011;51.510;9.942;2023-06-10T13:37:20;20.60;96.40
33673;DHT22;20011;51.510;9.942;2023-06-10T13:39:47;20.50;97.40
33673;DHT22;20011;51.510;9.942;2023-06-10T13:42:20;20.30;98.00
33673;DHT22;20011;51.510;9.942;2023-06-10T13:44:48;20.20;98.70
33673;DHT22;20011;51.510;9.942;2023-06-10T13:47:15;20.10;98.90
33673;DHT22;20011;51.510;9.942;2023-06-10T13:49:42;20.10;99.30
33673;DHT22;20011;51.510;9.942;2023-06-10T13:52:09;20.00;99.60
33673;DHT22;20011;51.510;9.942;2023-06-10T13:54:36;20.00;99.90
33673;DHT22;20011;51.510;9.942;2023-06-10T13:57:04;19.90;99.90
33673;DHT22;20011;51.510;9.942;2023-06-10T13:59:31;19.80;99.90
33673;DHT22;20011;51.510;9.942;2023-06-10T14:02:00;19.80;99.90
33673;DHT22;20011;51.510;9.942;2023-06-10T14:04:28;19.80;99.90
33673;DHT22;20011;51.510;9.942;2023-06-10T14:06:55;19.80;99.90
33673;DHT22;20011;51.510;9.942;2023-06-10T14:09:22;19.80;99.90
33673;DHT22;20011;51.510;9.942;2023-06-10T14:11:49;19.80;99.90
33673;DHT22;20011;51.510;9.942;2023-06-10T14:14:16;19.80;99.90
33673;DHT22;20011;51.510;9.942;2023-06-10T14:16:42;19.80;99.90
33673;DHT22;20011;51.510;9.942;2023-06-10T14:19:10;19.80;99.90
33673;DHT22;20011;51.510;9.942;2023-06-10T14:21:37;19.80;99.90
33673;DHT22;20011;51.510;9.942;2023-06-10T14:24:04;19.80;99.90
33673;DHT22;20011;51.510;9.942;2023-06-10T14:26:31;19.80;99.90
33673;DHT22;20011;51.510;9.942;2023-06-10T14:28:59;19.80;99.90
33673;DHT22;20011;51.510;9.942;2023-06-10T14:31:26;19.80;99.90
33673;DHT22;20011;51.510;9.942;2023-06-10T14:33:54;19.80;99.90
33673;DHT22;20011;51.510;9.942;2023-06-10T14:36:21;19.80;99.90
33673;DHT22;20011;51.510;9.942;2023-06-10T14:38:47;19.70;99.90
33673;DHT22;20011;51.510;9.942;2023-06-10T14:41:14;19.70;99.90
33673;DHT22;20011;51.510;9.942;2023-06-10T14:43:41;19.70;99.90
33673;DHT22;20011;51.510;9.942;2023-06-10T14:46:08;19.80;99.90
33673;DHT22;20011;51.510;9.942;2023-06-10T14:48:35;19.70;99.90
33673;DHT22;20011;51.510;9.942;2023-06-10T14:51:02;19.70;99.90
33673;DHT22;20011;51.510;9.942;2023-06-10T14:53:30;19.70;99.90
33673;DHT22;20011;51.510;9.942;2023-06-10T14:55:57;19.70;99.90
33673;DHT22;20011;51.510;9.942;2023-06-10T14:58:24;19.70;99.90
33673;DHT22;20011;51.510;9.942;2023-06-10T15:00:51;19.70;99.90
33673;DHT22;20011;51.510;9.942;2023-06-10T15:03:18;19.70;99.90
33673;DHT22;20011;51.510;9.942;2023-06-10T15:05:45;19.70;99.90
33673;DHT22;20011;51.510;9.942;2023-06-10T15:08:12;19.70;99.90
33673;DHT22;20011;51.510;9.942;2023-06-10T15:10:39;19.70;99.90
33673;DHT22;20011;51.510;9.942;2023-06-10T15:13:06;19.70;99.90
33673;DHT22;20011;51.510;9.942;2023-06-10T15:15:33;19.70;99.90
33673;DHT22;20011;51.510;9.942;2023-06-10T15:18:00;19.70;99.90
33673;DHT22;20011;51.510;9.942;2023-06-10T15:20:27;19.70;99.90
33673;DHT22;20011;51.510;9.942;2023-06-10T15:22:54;19.70;99.90
33673;DHT22;20011;51.510;9.942;2023-06-10T15:25:21;19.70;99.90
33673;DHT22;20011;51.510;9.942;2023-06-10T15:27:57;19.70;99.90
33673;DHT22;20011;51.510;9.942;2023-06-10T15:30:25;19.70;99.90
33673;DHT22;20011;51.510;9.942;2023-06-10T15:32:52;19.80;99.90
33673;DHT22;20011;51.510;9.942;2023-06-10T15:35:20;19.70;99.90
33673;DHT22;20011;51.510;9.942;2023-06-10T15:37:48;19.80;99.90
33673;DHT22;20011;51.510;9.942;2023-06-10T15:40:15;19.80;99.90
33673;DHT22;20011;51.510;9.942;2023-06-10T15:42:42;19.80;99.90
33673;DHT22;20011;51.510;9.942;2023-06-10T15:45:10;19.70;99.90
33673;DHT22;20011;51.510;9.942;2023-06-10T15:47:37;19.70;99.90
33673;DHT22;20011;51.510;9.942;2023-06-10T15:50:05;19.70;99.90
33673;DHT22;20011;51.510;9.942;2023-06-10T15:52:32;19.80;99.90
33673;DHT22;20011;51.510;9.942;2023-06-10T15:54:59;19.70;99.90
33673;DHT22;20011;51.510;9.942;2023-06-10T15:57:26;19.70;99.90
33673;DHT22;20011;51.510;9.942;2023-06-10T15:59:54;19.70;99.90